Yokosuka Fwf, Japan

4:09 PM JST on April 21, 2015 (GMT +0900)
Totsukaku-Kashiodai | | Change Station
CLOSE
Current Station
Personal Weather Station
Location: 横浜市, 神奈川県
Elevation: 112 ft
Nearby Weather Stations

Elev 112 ft 35.42 °N, 139.56 °E | Updated 23 seconds ago

Scattered Clouds
Scattered Clouds
66.2 °F
Feels Like 66.2 °F
N
9.6
Wind Variable Wind from WSW
Gusts 12.3 mph

Today
High -- | Low -- °F
--% Chance of Precip.
Yesterday
High -- | Low -- °F
Precip. -- in
5:02 AM 6:18 PM
Waxing Crescent, 8% visible
Pressure 29.80 in
Visibility 6.2 miles
Clouds Few 4000 ft
Scattered Clouds 6000 ft
Dew Point 54 °F
Humidity 65%
Rainfall 0.00 in
Snow Depth Not available.
UV 2 out of 12
Pollen Not available.
Air Quality Not available.
Flu Activity Not available.
METAR RJTT 210700Z 08016KT 9999 FEW040 SCT060 16/12 Q1009 NOSIG RMK 2SC040 4SC060 A2980

More Conditions Fewer Conditions

Pressure 29.80 in
Visibility 6.2 miles
Clouds Few 4000 ft
Scattered Clouds 6000 ft
Dew Point 54 °F
Humidity 65%
Rainfall 0.00 in
Snow Depth Not available.
UV 2 out of 12
Pollen Not available.
Air Quality Not available.
Flu Activity Not available.
METAR RJTT 210700Z 08016KT 9999 FEW040 SCT060 16/12 Q1009 NOSIG RMK 2SC040 4SC060 A2980

More Conditions Fewer Conditions

10-Day Weather Forecast

Almanac

Astronomy

Apr. 21, 2015 Rise Set
Actual Time
Civil Twilight
Nautical Twilight
Astronomical Twilight
Moon
Length of Visible Light
Length of Day
Tomorrow will be .
, % of the Moon is Illuminated

Today's Extremes

Country Highs Country Lows

Community

WunderPhotos

Upload Photos

1,815,323 photos uploaded!

WunderBlogs® & News

Nearby

Air Quality

  Air Quality AQ Index Pollutant
Not available.

Snow Depth

Station Depth Elevation

Earthquake Activity

City Distance Mag. Time & Date
Minimum magnitude displayed is 2.5.

Coastal Water Temperatures

Place Temperature

Stations

Nearby Weather Stations

Station Location Temp. Windchill Dew Point Humidity Wind Precip. Elev Updated Type